Terminal Aerodrome Forecast
Issued by NWS Raleigh/Durham, NC

Home | Current Version | Previous Version | Text Only | Print | Product List | Glossary On
Versions: 1 2 3 4 5 6 7 8 9 10 11 12 13 14 15 16 17 18 19 20 21
000
FTUS42 KRAH 280026 AAA
TAFRDU
TAF AMD
KRDU 280026Z 2800/2824 VRB05KT P6SM VCSH BKN060
     FM280300 VRB03KT P6SM SCT250
      TEMPO 2810/2812 5SM BR
     FM281800 22008KT P6SM SCT050=

USA.gov is the U.S. government's official web portal to all federal, state and local government web resources and services.